createdAt,value
2022-09-24T00:01:43.185Z,88.00
2022-09-24T00:03:52.157Z,87.91
2022-09-24T00:05:53.813Z,87.81
2022-09-24T00:07:55.254Z,87.78
2022-09-24T00:09:56.702Z,85.74
2022-09-24T00:11:58.209Z,84.66
2022-09-24T00:14:00.252Z,84.80
2022-09-24T00:16:05.879Z,85.62
2022-09-24T00:18:07.955Z,85.82
2022-09-24T00:20:09.559Z,85.85
2022-09-24T00:22:11.096Z,85.78
2022-09-24T00:24:35.039Z,86.13
2022-09-24T00:26:51.951Z,86.28
2022-09-24T00:28:53.381Z,86.78
2022-09-24T00:30:58.386Z,86.51
2022-09-24T00:32:59.904Z,86.49
2022-09-24T00:35:01.392Z,86.44
2022-09-24T00:37:02.955Z,86.90
2022-09-24T00:39:05.469Z,87.13
2022-09-24T00:41:06.990Z,86.89
2022-09-24T00:43:41.226Z,87.67
2022-09-24T00:45:42.680Z,87.77
2022-09-24T00:47:44.864Z,87.40
2022-09-24T00:49:49.309Z,87.98
2022-09-24T00:51:52.947Z,89.26
2022-09-24T00:53:59.179Z,90.29
2022-09-24T00:56:03.006Z,90.90
2022-09-24T00:58:07.224Z,92.09
2022-09-24T01:00:09.705Z,92.09
2022-09-24T01:02:11.980Z,92.17
2022-09-24T01:04:16.252Z,92.81
2022-09-24T01:06:17.716Z,92.26
2022-09-24T01:08:20.636Z,91.89
2022-09-24T01:10:50.953Z,91.67
2022-09-24T01:13:02.073Z,92.60
2022-09-24T01:15:21.494Z,93.07
2022-09-24T01:18:07.985Z,92.98
2022-09-24T01:20:18.447Z,93.39
2022-09-24T01:22:41.703Z,93.42
2022-09-24T01:25:01.906Z,93.65
2022-09-24T01:27:26.595Z,94.16
2022-09-24T01:29:42.191Z,94.40
2022-09-24T01:31:48.892Z,94.42
2022-09-24T01:33:53.575Z,94.75
2022-09-24T01:35:59.329Z,95.18
2022-09-24T01:38:22.967Z,95.62
2022-09-24T01:40:27.649Z,95.83
2022-09-24T01:42:31.170Z,96.07
2022-09-24T01:44:34.815Z,96.20
2022-09-24T01:46:41.290Z,96.44
2022-09-24T01:48:42.934Z,96.79
2022-09-24T01:50:58.662Z,96.87
2022-09-24T01:53:07.434Z,97.12
2022-09-24T01:55:13.782Z,97.67
2022-09-24T01:57:22.502Z,97.65
2022-09-24T01:59:37.729Z,98.16
2022-09-24T02:02:18.134Z,98.18
2022-09-24T02:04:21.571Z,98.48
2022-09-24T02:06:33.556Z,98.26
2022-09-24T02:08:41.072Z,98.21
2022-09-24T02:10:49.982Z,98.37
2022-09-24T02:12:59.604Z,98.54
2022-09-24T02:15:17.416Z,98.68
2022-09-24T02:17:19.265Z,98.74
2022-09-24T02:19:29.127Z,98.35
2022-09-24T02:21:33.321Z,98.65
2022-09-24T02:23:38.507Z,98.73
2022-09-24T02:25:50.610Z,98.87
2022-09-24T02:27:52.095Z,98.99
2022-09-24T02:29:53.575Z,98.73
2022-09-24T02:31:57.685Z,98.52
2022-09-24T02:34:20.576Z,98.35
2022-09-24T02:36:24.860Z,98.52
2022-09-24T02:38:26.328Z,98.27
2022-09-24T02:40:28.015Z,98.00
2022-09-24T02:42:31.371Z,98.24
2022-09-24T02:44:34.124Z,97.60
2022-09-24T02:46:35.613Z,97.41
2022-09-24T02:48:37.354Z,97.08
2022-09-24T02:50:38.777Z,97.70
2022-09-24T02:52:40.205Z,97.63
2022-09-24T02:54:42.599Z,97.56
2022-09-24T02:56:44.020Z,97.57
2022-09-24T02:58:45.491Z,97.56
2022-09-24T03:00:46.973Z,97.88
2022-09-24T03:02:48.591Z,97.81
2022-09-24T03:04:50.894Z,97.87
2022-09-24T03:06:52.403Z,97.99
2022-09-24T03:08:54.674Z,98.10
2022-09-24T03:10:56.235Z,98.32
2022-09-24T03:12:58.177Z,98.35
2022-09-24T03:14:59.599Z,98.76
2022-09-24T03:17:01.249Z,98.67
2022-09-24T03:19:03.157Z,98.80
2022-09-24T03:21:10.557Z,98.89
2022-09-24T03:23:11.997Z,99.22
2022-09-24T03:25:14.713Z,99.34
2022-09-24T03:27:16.257Z,99.37
2022-09-24T03:29:37.662Z,99.63
2022-09-24T03:31:39.188Z,99.74
2022-09-24T03:33:43.464Z,99.52
2022-09-24T03:35:44.927Z,99.32
2022-09-24T03:37:49.185Z,99.33
2022-09-24T03:39:50.851Z,99.47
2022-09-24T03:41:52.277Z,99.64
2022-09-24T03:43:53.994Z,99.65
2022-09-24T03:45:55.765Z,99.62
2022-09-24T03:47:57.195Z,99.93
2022-09-24T03:49:58.749Z,100.00
2022-09-24T03:52:00.186Z,100.00
2022-09-24T03:54:01.678Z,99.98
2022-09-24T03:56:05.610Z,100.00
2022-09-24T03:58:07.047Z,100.00
2022-09-24T04:00:09.247Z,100.00
2022-09-24T04:02:11.933Z,100.00
2022-09-24T04:04:16.248Z,99.94
2022-09-24T04:06:22.092Z,100.00
2022-09-24T04:08:26.320Z,100.00
2022-09-24T04:10:28.683Z,100.00
2022-09-24T04:12:31.120Z,100.00
2022-09-24T04:14:32.569Z,100.00
2022-09-24T04:16:34.145Z,100.00
2022-09-24T04:18:39.052Z,99.86
2022-09-24T04:20:41.627Z,100.00
2022-09-24T04:22:43.079Z,100.00
2022-09-24T04:24:44.650Z,100.00
2022-09-24T04:26:46.080Z,100.00
2022-09-24T04:28:47.512Z,100.00
2022-09-24T04:30:49.095Z,100.00
2022-09-24T04:32:51.535Z,99.93
2022-09-24T04:34:52.961Z,100.00
2022-09-24T04:36:54.377Z,100.00
2022-09-24T04:38:57.149Z,100.00
2022-09-24T04:41:05.381Z,100.00
2022-09-24T04:43:07.198Z,100.00
2022-09-24T04:45:10.113Z,100.00
2022-09-24T04:47:11.650Z,100.00
2022-09-24T04:49:14.191Z,100.00
2022-09-24T04:51:17.637Z,100.00
2022-09-24T04:53:19.424Z,100.00
2022-09-24T04:55:21.737Z,100.00
2022-09-24T04:57:23.394Z,100.00
2022-09-24T04:59:24.891Z,100.00
2022-09-24T05:01:26.719Z,100.00
2022-09-24T05:03:28.193Z,100.00
2022-09-24T05:05:30.477Z,100.00
2022-09-24T05:07:31.901Z,100.00
2022-09-24T05:09:33.552Z,100.00
2022-09-24T05:11:35.051Z,100.00
2022-09-24T05:13:36.478Z,100.00
2022-09-24T05:15:42.375Z,100.00
2022-09-24T05:17:45.268Z,100.00
2022-09-24T05:19:46.727Z,100.00
2022-09-24T05:21:48.587Z,100.00
2022-09-24T05:23:50.035Z,100.00
2022-09-24T05:26:09.975Z,100.00
2022-09-24T05:28:11.402Z,100.00
2022-09-24T05:30:13.329Z,100.00
2022-09-24T05:32:17.467Z,100.00
2022-09-24T05:34:19.111Z,100.00
2022-09-24T05:36:20.604Z,100.00
2022-09-24T05:38:22.032Z,100.00
2022-09-24T05:40:42.739Z,100.00
2022-09-24T05:42:44.202Z,100.00
2022-09-24T05:44:49.806Z,100.00
2022-09-24T05:46:53.581Z,100.00
2022-09-24T05:48:55.818Z,100.00
2022-09-24T05:50:57.354Z,100.00
2022-09-24T05:52:58.778Z,100.00
2022-09-24T05:55:00.226Z,100.00
2022-09-24T05:57:01.666Z,100.00
2022-09-24T05:59:03.525Z,100.00
2022-09-24T06:01:05.058Z,100.00
2022-09-24T06:03:11.929Z,100.00
2022-09-24T06:05:13.638Z,100.00
2022-09-24T06:07:15.056Z,100.00
2022-09-24T06:09:16.475Z,100.00
2022-09-24T06:11:18.790Z,100.00
2022-09-24T06:13:21.040Z,100.00
2022-09-24T06:15:22.687Z,100.00
2022-09-24T06:17:24.113Z,100.00
2022-09-24T06:19:25.588Z,100.00
2022-09-24T06:21:27.030Z,100.00
2022-09-24T06:23:29.229Z,100.00
2022-09-24T06:25:31.294Z,100.00
2022-09-24T06:27:32.774Z,100.00
2022-09-24T06:29:34.293Z,100.00
2022-09-24T06:31:35.831Z,100.00
2022-09-24T06:33:38.101Z,100.00
2022-09-24T06:35:44.457Z,100.00
2022-09-24T06:37:45.978Z,100.00
2022-09-24T06:39:47.438Z,100.00
2022-09-24T06:41:50.338Z,100.00
2022-09-24T06:43:54.570Z,100.00
2022-09-24T06:45:57.689Z,100.00
2022-09-24T06:48:00.995Z,100.00
2022-09-24T06:50:02.446Z,100.00
2022-09-24T06:52:04.867Z,100.00
2022-09-24T06:54:06.352Z,100.00
2022-09-24T06:56:07.869Z,100.00
2022-09-24T06:58:12.084Z,100.00
2022-09-24T07:00:15.488Z,100.00
2022-09-24T07:02:17.185Z,100.00
2022-09-24T07:04:18.672Z,100.00
2022-09-24T07:06:20.231Z,100.00
2022-09-24T07:08:22.508Z,100.00
2022-09-24T07:10:25.222Z,100.00
2022-09-24T07:12:26.810Z,100.00
2022-09-24T07:14:28.231Z,100.00
2022-09-24T07:16:29.716Z,100.00
2022-09-24T07:18:31.178Z,100.00
2022-09-24T07:20:33.590Z,100.00
2022-09-24T07:22:43.104Z,100.00
2022-09-24T07:24:44.822Z,100.00
2022-09-24T07:26:46.283Z,100.00
2022-09-24T07:28:47.804Z,100.00
2022-09-24T07:30:57.337Z,100.00
2022-09-24T07:32:59.070Z,100.00
2022-09-24T07:35:00.538Z,100.00
2022-09-24T07:37:02.051Z,100.00
2022-09-24T07:39:03.669Z,100.00
2022-09-24T07:41:07.956Z,100.00
2022-09-24T07:43:13.799Z,100.00
2022-09-24T07:45:17.349Z,100.00
2022-09-24T07:47:18.836Z,100.00
2022-09-24T07:49:20.333Z,100.00
2022-09-24T07:51:27.528Z,100.00
2022-09-24T07:53:28.960Z,100.00
2022-09-24T07:55:30.379Z,100.00
2022-09-24T07:57:32.020Z,100.00
2022-09-24T07:59:33.510Z,100.00
2022-09-24T08:01:34.994Z,100.00
2022-09-24T08:03:36.605Z,100.00
2022-09-24T08:05:45.592Z,100.00
2022-09-24T08:07:55.199Z,100.00
2022-09-24T08:09:56.760Z,100.00
2022-09-24T08:11:58.251Z,100.00
2022-09-24T08:14:00.618Z,100.00
2022-09-24T08:16:03.207Z,100.00
2022-09-24T08:18:05.698Z,100.00
2022-09-24T08:20:07.562Z,100.00
2022-09-24T08:22:08.980Z,100.00
2022-09-24T08:24:10.462Z,100.00
2022-09-24T08:26:13.056Z,100.00
2022-09-24T08:28:16.985Z,100.00
2022-09-24T08:30:18.614Z,100.00
2022-09-24T08:32:20.046Z,100.00
2022-09-24T08:34:21.596Z,100.00
2022-09-24T08:36:23.048Z,100.00
2022-09-24T08:38:24.466Z,100.00
2022-09-24T08:40:30.193Z,100.00
2022-09-24T08:42:40.089Z,100.00
2022-09-24T08:45:07.420Z,100.00
2022-09-24T08:47:27.272Z,100.00
2022-09-24T08:49:35.273Z,100.00
2022-09-24T08:51:51.176Z,100.00
2022-09-24T08:54:10.348Z,100.00
2022-09-24T08:56:12.519Z,100.00
2022-09-24T08:58:44.360Z,100.00
2022-09-24T09:00:52.043Z,100.00
2022-09-24T09:03:03.823Z,100.00
2022-09-24T09:05:39.487Z,100.00
2022-09-24T09:07:54.791Z,100.00
2022-09-24T09:10:09.721Z,100.00
2022-09-24T09:12:17.742Z,100.00
2022-09-24T09:14:31.175Z,100.00
2022-09-24T09:16:50.447Z,100.00
2022-09-24T09:18:55.939Z,100.00
2022-09-24T09:21:10.430Z,100.00
2022-09-24T09:23:19.280Z,100.00
2022-09-24T09:25:28.453Z,100.00
2022-09-24T09:27:30.048Z,100.00
2022-09-24T09:29:31.878Z,100.00
2022-09-24T09:31:45.880Z,100.00
2022-09-24T09:34:14.152Z,100.00
2022-09-24T09:36:27.074Z,100.00
2022-09-24T09:39:04.792Z,100.00
2022-09-24T09:41:12.051Z,100.00
2022-09-24T09:43:14.796Z,100.00
2022-09-24T09:45:35.193Z,100.00
2022-09-24T09:47:43.539Z,100.00
2022-09-24T09:49:47.285Z,100.00
2022-09-24T09:51:49.926Z,100.00
2022-09-24T09:53:59.444Z,100.00
2022-09-24T09:56:04.845Z,100.00
2022-09-24T09:58:15.379Z,100.00
2022-09-24T10:00:32.971Z,100.00
2022-09-24T10:02:37.645Z,100.00
2022-09-24T10:04:41.434Z,100.00
2022-09-24T10:06:42.868Z,100.00
2022-09-24T10:08:44.318Z,100.00
2022-09-24T10:10:56.812Z,100.00
2022-09-24T10:13:09.209Z,100.00
2022-09-24T10:15:19.047Z,100.00
2022-09-24T10:17:28.341Z,100.00
2022-09-24T10:19:29.891Z,100.00
2022-09-24T10:21:36.972Z,100.00
2022-09-24T10:23:43.897Z,100.00
2022-09-24T10:25:51.526Z,100.00
2022-09-24T10:28:18.692Z,99.72
2022-09-24T10:30:36.109Z,99.85
2022-09-24T10:32:38.280Z,100.00
2022-09-24T10:34:39.710Z,100.00
2022-09-24T10:36:53.618Z,100.00
2022-09-24T10:39:21.660Z,99.95
2022-09-24T10:41:27.354Z,99.46
2022-09-24T10:43:28.928Z,99.52
2022-09-24T10:45:49.640Z,99.89
2022-09-24T10:47:57.908Z,99.63
2022-09-24T10:50:31.539Z,99.37
2022-09-24T10:53:13.414Z,99.38
2022-09-24T10:55:19.249Z,99.42
2022-09-24T10:57:39.715Z,99.24
2022-09-24T11:00:01.101Z,99.29
2022-09-24T11:02:17.595Z,98.86
2022-09-24T11:04:44.039Z,99.03
2022-09-24T11:07:07.183Z,98.60
2022-09-24T11:09:14.564Z,98.29
2022-09-24T11:11:21.902Z,98.47
2022-09-24T11:13:51.702Z,98.06
2022-09-24T11:16:16.607Z,98.17
2022-09-24T11:18:39.117Z,98.12
2022-09-24T11:21:03.018Z,98.27
2022-09-24T11:23:17.073Z,98.32
2022-09-24T11:25:52.611Z,98.16
2022-09-24T11:28:15.704Z,98.39
2022-09-24T11:30:24.940Z,98.31
2022-09-24T11:32:38.404Z,98.31
2022-09-24T11:34:39.800Z,98.34
2022-09-24T11:36:59.374Z,98.42
2022-09-24T11:39:25.475Z,98.36
2022-09-24T11:42:03.968Z,98.13
2022-09-24T11:44:16.783Z,98.48
2022-09-24T11:46:37.011Z,98.59
2022-09-24T11:49:08.829Z,98.52
2022-09-24T11:51:26.410Z,98.90
2022-09-24T11:53:59.999Z,98.87
2022-09-24T11:56:13.182Z,98.63
2022-09-24T11:58:24.017Z,98.44
2022-09-24T12:00:33.867Z,98.42
2022-09-24T12:02:40.207Z,98.25
2022-09-24T12:04:59.174Z,98.29
2022-09-24T12:07:12.801Z,98.24
2022-09-24T12:09:53.716Z,98.45
2022-09-24T12:12:16.218Z,98.54
2022-09-24T12:14:22.746Z,98.50
2022-09-24T12:16:28.534Z,98.61
2022-09-24T12:18:36.623Z,98.54
2022-09-24T12:20:52.670Z,98.24
2022-09-24T12:23:02.245Z,98.44
2022-09-24T12:25:04.658Z,98.43
2022-09-24T12:27:12.406Z,98.45
2022-09-24T12:29:54.139Z,98.21
2022-09-24T12:32:21.408Z,97.88
2022-09-24T12:34:50.813Z,97.31
2022-09-24T12:37:02.522Z,97.01
2022-09-24T12:39:12.900Z,97.35
2022-09-24T12:41:36.428Z,97.00
2022-09-24T12:43:47.840Z,97.15
2022-09-24T12:45:55.641Z,96.60
2022-09-24T12:48:00.280Z,96.33
2022-09-24T12:50:05.018Z,94.94
2022-09-24T12:52:18.895Z,94.27
2022-09-24T12:54:39.060Z,94.91
2022-09-24T12:56:41.016Z,94.55
2022-09-24T12:58:44.831Z,94.38
2022-09-24T13:00:47.248Z,94.39
2022-09-24T13:02:48.838Z,93.76
2022-09-24T13:05:12.060Z,93.60
2022-09-24T13:07:35.241Z,93.81
2022-09-24T13:09:41.244Z,93.95
2022-09-24T13:11:43.286Z,93.84
2022-09-24T13:13:44.834Z,93.33
2022-09-24T13:15:58.070Z,93.49
2022-09-24T13:18:11.386Z,93.72
2022-09-24T13:20:28.242Z,93.90
2022-09-24T13:22:30.729Z,94.27
2022-09-24T13:24:45.761Z,94.43
2022-09-24T13:26:47.246Z,94.30
2022-09-24T13:28:50.979Z,94.51
2022-09-24T13:31:10.668Z,94.82
2022-09-24T13:33:33.377Z,94.34
2022-09-24T13:35:43.235Z,94.45
2022-09-24T13:37:52.522Z,94.46
2022-09-24T13:40:03.534Z,94.70
2022-09-24T13:42:26.482Z,94.62
2022-09-24T13:44:39.405Z,94.70
2022-09-24T13:46:46.483Z,94.53
2022-09-24T13:48:59.709Z,94.78
2022-09-24T13:51:04.277Z,94.59
2022-09-24T13:53:31.871Z,94.28
2022-09-24T13:55:39.785Z,94.46
2022-09-24T13:57:45.679Z,94.37
2022-09-24T13:59:47.171Z,94.30
2022-09-24T14:01:48.670Z,93.58
2022-09-24T14:03:57.258Z,93.47
2022-09-24T14:05:59.776Z,93.48
2022-09-24T14:08:06.448Z,93.81
2022-09-24T14:10:14.194Z,93.44
2022-09-24T14:12:22.284Z,93.44
2022-09-24T14:14:26.724Z,93.17
2022-09-24T14:16:28.243Z,92.36
2022-09-24T14:18:30.003Z,91.78
2022-09-24T14:20:35.174Z,91.88
2022-09-24T14:22:41.107Z,91.94
2022-09-24T14:24:56.424Z,92.34
2022-09-24T14:27:00.826Z,91.79
2022-09-24T14:29:13.244Z,92.26
2022-09-24T14:31:14.874Z,92.26
2022-09-24T14:33:20.179Z,92.37
2022-09-24T14:35:33.094Z,92.13
2022-09-24T14:37:38.708Z,91.76
2022-09-24T14:39:43.300Z,91.79
2022-09-24T14:41:44.859Z,91.84
2022-09-24T14:43:58.406Z,91.61
2022-09-24T14:46:23.716Z,91.66
2022-09-24T14:48:31.930Z,91.74
2022-09-24T14:50:38.873Z,91.65
2022-09-24T14:52:40.577Z,91.68
2022-09-24T14:54:42.037Z,91.76
2022-09-24T14:56:43.632Z,91.71
2022-09-24T14:58:45.109Z,91.86
2022-09-24T15:00:50.027Z,91.54
2022-09-24T15:03:00.026Z,91.33
2022-09-24T15:05:06.433Z,91.41
2022-09-24T15:07:15.994Z,91.36
2022-09-24T15:09:26.136Z,91.05
2022-09-24T15:11:34.405Z,90.93
2022-09-24T15:13:37.713Z,90.94
2022-09-24T15:15:40.008Z,90.97
2022-09-24T15:17:41.524Z,91.04
2022-09-24T15:19:44.024Z,91.00
2022-09-24T15:21:50.339Z,91.19
2022-09-24T15:23:51.829Z,91.36
2022-09-24T15:25:53.333Z,91.11
2022-09-24T15:27:54.965Z,91.01
2022-09-24T15:29:59.498Z,91.11
2022-09-24T15:32:01.370Z,91.26
2022-09-24T15:34:02.846Z,91.28
2022-09-24T15:36:04.531Z,91.40
2022-09-24T15:38:06.397Z,91.27
2022-09-24T15:40:12.737Z,91.14
2022-09-24T15:42:19.434Z,91.01
2022-09-24T15:44:27.119Z,91.18
2022-09-24T15:46:30.065Z,90.81
2022-09-24T15:48:31.566Z,90.96
2022-09-24T15:50:33.633Z,91.16
2022-09-24T15:52:44.750Z,91.26
2022-09-24T15:54:46.174Z,91.53
2022-09-24T15:56:52.330Z,91.63
2022-09-24T15:58:54.302Z,91.75
2022-09-24T16:00:55.765Z,91.47
2022-09-24T16:02:57.981Z,91.32
2022-09-24T16:05:03.507Z,91.56
2022-09-24T16:07:05.699Z,91.54
2022-09-24T16:09:07.156Z,91.67
2022-09-24T16:11:09.402Z,91.77
2022-09-24T16:13:12.165Z,92.12
2022-09-24T16:15:15.839Z,92.07
2022-09-24T16:17:17.273Z,91.96
2022-09-24T16:19:18.770Z,91.97
2022-09-24T16:21:20.447Z,91.95
2022-09-24T16:23:22.014Z,91.95
2022-09-24T16:25:23.735Z,91.55
2022-09-24T16:27:25.174Z,91.46
2022-09-24T16:29:26.708Z,91.52
2022-09-24T16:31:28.187Z,91.82
2022-09-24T16:33:29.678Z,92.10
2022-09-24T16:35:31.140Z,92.03
2022-09-24T16:37:32.559Z,92.27
2022-09-24T16:39:34.395Z,91.95
2022-09-24T16:41:37.796Z,92.04
2022-09-24T16:43:39.387Z,91.87
2022-09-24T16:45:40.824Z,91.95
2022-09-24T16:47:42.250Z,92.17
2022-09-24T16:49:44.414Z,91.71
2022-09-24T16:51:45.834Z,91.85
2022-09-24T16:53:48.952Z,91.81
2022-09-24T16:55:50.608Z,91.90
2022-09-24T16:57:52.854Z,92.21
2022-09-24T16:59:54.281Z,92.29
2022-09-24T17:01:55.828Z,92.61
2022-09-24T17:03:58.783Z,92.56
2022-09-24T17:06:00.335Z,92.72
2022-09-24T17:08:01.852Z,93.13
2022-09-24T17:10:18.375Z,93.33
2022-09-24T17:12:19.951Z,93.27
2022-09-24T17:14:21.475Z,93.82
2022-09-24T17:16:24.788Z,94.49
2022-09-24T17:18:27.481Z,94.89
2022-09-24T17:20:29.689Z,95.35
2022-09-24T17:22:31.175Z,96.04
2022-09-24T17:24:32.752Z,96.11
2022-09-24T17:26:34.531Z,96.52
2022-09-24T17:28:37.073Z,96.31
2022-09-24T17:30:38.519Z,96.91
2022-09-24T17:32:39.947Z,96.87
2022-09-24T17:34:45.644Z,97.15
2022-09-24T17:36:47.671Z,97.17
2022-09-24T17:38:49.169Z,97.17
2022-09-24T17:40:57.042Z,97.72
2022-09-24T17:42:58.472Z,97.81
2022-09-24T17:44:59.896Z,98.13
2022-09-24T17:47:01.498Z,98.25
2022-09-24T17:49:03.259Z,98.03
2022-09-24T17:51:19.983Z,98.49
2022-09-24T17:53:21.439Z,98.41
2022-09-24T17:55:22.977Z,98.53
2022-09-24T17:57:25.486Z,98.56
2022-09-24T17:59:27.297Z,98.59
2022-09-24T18:01:33.429Z,99.21
2022-09-24T18:03:35.440Z,98.75
2022-09-24T18:05:37.834Z,99.31
2022-09-24T18:07:39.294Z,99.46
2022-09-24T18:09:40.773Z,99.25
2022-09-24T18:11:45.238Z,99.43
2022-09-24T18:13:54.274Z,99.76
2022-09-24T18:15:55.803Z,99.88
2022-09-24T18:17:57.612Z,99.82
2022-09-24T18:19:59.392Z,99.79
2022-09-24T18:22:00.822Z,99.99
2022-09-24T18:24:02.789Z,100.00
2022-09-24T18:26:19.170Z,100.00
2022-09-24T18:28:20.647Z,100.00
2022-09-24T18:30:22.126Z,100.00
2022-09-24T18:32:26.110Z,100.00
2022-09-24T18:34:27.637Z,100.00
2022-09-24T18:36:29.418Z,100.00
2022-09-24T18:38:34.316Z,100.00
2022-09-24T18:40:35.815Z,100.00
2022-09-24T18:42:37.329Z,100.00
2022-09-24T18:44:38.837Z,100.00
2022-09-24T18:46:40.467Z,100.00
2022-09-24T18:48:43.638Z,100.00
2022-09-24T18:50:45.667Z,100.00
2022-09-24T18:52:47.113Z,100.00
2022-09-24T18:54:48.775Z,100.00
2022-09-24T18:56:50.532Z,100.00
2022-09-24T18:59:09.686Z,100.00
2022-09-24T19:01:11.559Z,100.00
2022-09-24T19:03:13.088Z,100.00
2022-09-24T19:05:14.563Z,100.00
2022-09-24T19:07:16.038Z,100.00
2022-09-24T19:09:20.260Z,100.00
2022-09-24T19:11:22.846Z,100.00
2022-09-24T19:13:26.504Z,100.00
2022-09-24T19:15:28.554Z,100.00
2022-09-24T19:17:30.034Z,100.00
2022-09-24T19:19:31.704Z,100.00
2022-09-24T19:21:33.266Z,100.00
2022-09-24T19:23:46.892Z,100.00
2022-09-24T19:25:48.344Z,100.00
2022-09-24T19:27:49.755Z,100.00
2022-09-24T19:29:53.718Z,100.00
2022-09-24T19:31:55.189Z,100.00
2022-09-24T19:33:57.313Z,100.00
2022-09-24T19:36:04.935Z,100.00
2022-09-24T19:38:06.372Z,100.00
2022-09-24T19:40:10.068Z,100.00
2022-09-24T19:42:11.604Z,100.00
2022-09-24T19:44:13.687Z,99.46
2022-09-24T19:46:16.969Z,95.20
2022-09-24T19:48:18.468Z,95.36
2022-09-24T19:50:19.943Z,95.87
2022-09-24T19:52:21.486Z,95.95
2022-09-24T19:54:23.089Z,96.50
2022-09-24T19:56:25.442Z,96.16
2022-09-24T19:58:27.512Z,96.58
2022-09-24T20:00:28.964Z,95.08
2022-09-24T20:02:30.511Z,94.73
2022-09-24T20:04:33.715Z,88.43
2022-09-24T20:06:38.504Z,87.65
2022-09-24T20:08:40.188Z,89.12
2022-09-24T20:10:42.201Z,85.68
2022-09-24T20:12:46.604Z,84.54
2022-09-24T20:14:48.029Z,86.33
2022-09-24T20:16:49.819Z,82.57
2022-09-24T20:18:55.590Z,87.19
2022-09-24T20:21:03.447Z,87.91
2022-09-24T20:23:05.532Z,85.84
2022-09-24T20:25:07.392Z,83.83
2022-09-24T20:27:30.008Z,83.82
2022-09-24T20:29:31.425Z,82.93
2022-09-24T20:31:33.349Z,83.84
2022-09-24T20:33:34.866Z,84.32
2022-09-24T20:35:38.195Z,86.21
2022-09-24T20:37:39.642Z,85.20
2022-09-24T20:39:41.057Z,85.26
2022-09-24T20:41:42.874Z,88.03
2022-09-24T20:43:45.833Z,90.44
2022-09-24T20:45:47.352Z,91.39
2022-09-24T20:47:49.859Z,90.93
2022-09-24T20:49:51.298Z,91.99
2022-09-24T20:51:57.350Z,92.93
2022-09-24T20:53:59.882Z,92.70
2022-09-24T20:56:02.079Z,93.38
2022-09-24T20:58:03.568Z,93.98
2022-09-24T21:00:05.762Z,94.00
2022-09-24T21:02:07.341Z,93.79
2022-09-24T21:04:08.916Z,94.54
2022-09-24T21:06:11.801Z,94.54
2022-09-24T21:08:16.612Z,94.92
2022-09-24T21:10:18.721Z,95.02
2022-09-24T21:12:20.644Z,95.23
2022-09-24T21:14:22.215Z,95.95
2022-09-24T21:16:26.640Z,95.11
2022-09-24T21:18:38.352Z,95.33
2022-09-24T21:20:42.496Z,95.55
2022-09-24T21:22:44.016Z,95.37
2022-09-24T21:24:45.977Z,94.80
2022-09-24T21:26:47.664Z,95.09
2022-09-24T21:28:51.872Z,95.10
2022-09-24T21:30:58.167Z,95.29
2022-09-24T21:33:00.353Z,95.91
2022-09-24T21:35:01.882Z,95.38
2022-09-24T21:37:03.959Z,95.49
2022-09-24T21:39:08.654Z,96.11
2022-09-24T21:41:10.155Z,95.46
2022-09-24T21:43:11.663Z,95.31
2022-09-24T21:45:13.860Z,95.81
2022-09-24T21:47:15.308Z,94.90
2022-09-24T21:49:17.364Z,95.15
2022-09-24T21:51:22.910Z,93.90
2022-09-24T21:53:24.367Z,93.73
2022-09-24T21:55:25.821Z,94.03
2022-09-24T21:57:27.252Z,88.14
2022-09-24T21:59:47.237Z,88.81
2022-09-24T22:01:49.195Z,89.62
2022-09-24T22:03:56.070Z,90.18
2022-09-24T22:05:59.586Z,90.13
2022-09-24T22:08:01.219Z,91.26
2022-09-24T22:10:02.728Z,89.90
2022-09-24T22:12:04.568Z,88.07
2022-09-24T22:14:06.207Z,87.69
2022-09-24T22:16:13.326Z,89.39
2022-09-24T22:18:14.812Z,90.24
2022-09-24T22:20:16.308Z,91.24
2022-09-24T22:22:17.734Z,91.62
2022-09-24T22:24:19.200Z,90.65
2022-09-24T22:26:20.784Z,90.26
2022-09-24T22:28:24.469Z,90.54
2022-09-24T22:30:26.024Z,91.78
2022-09-24T22:32:27.485Z,92.70
2022-09-24T22:34:47.813Z,92.96
2022-09-24T22:36:49.282Z,93.78
2022-09-24T22:38:56.365Z,93.73
2022-09-24T22:41:02.185Z,94.22
2022-09-24T22:43:03.616Z,93.90
2022-09-24T22:45:05.597Z,93.54
2022-09-24T22:47:07.032Z,91.72
2022-09-24T22:49:09.216Z,92.64
2022-09-24T22:51:11.047Z,93.37
2022-09-24T22:53:12.470Z,92.38
2022-09-24T22:55:14.596Z,92.56
2022-09-24T22:57:16.132Z,93.59
2022-09-24T22:59:17.532Z,93.72
2022-09-24T23:01:23.047Z,92.90
2022-09-24T23:03:24.746Z,90.87
2022-09-24T23:05:26.256Z,89.21
2022-09-24T23:07:27.772Z,85.99
2022-09-24T23:09:29.223Z,83.74
2022-09-24T23:11:33.095Z,83.44
2022-09-24T23:13:35.326Z,87.42
2022-09-24T23:15:36.848Z,89.42
2022-09-24T23:17:38.349Z,90.29
2022-09-24T23:19:48.660Z,88.85
2022-09-24T23:21:50.105Z,90.29
2022-09-24T23:23:59.937Z,92.31
2022-09-24T23:26:08.081Z,92.89
2022-09-24T23:28:09.509Z,93.79
2022-09-24T23:30:11.209Z,94.05
2022-09-24T23:32:14.307Z,94.41
2022-09-24T23:34:15.749Z,94.74
2022-09-24T23:36:18.103Z,95.13
2022-09-24T23:38:19.738Z,95.15
2022-09-24T23:40:21.255Z,95.34
2022-09-24T23:42:23.636Z,95.75
2022-09-24T23:44:25.101Z,95.90
2022-09-24T23:46:27.434Z,95.82
2022-09-24T23:48:29.691Z,96.05
2022-09-24T23:50:31.140Z,96.20
2022-09-24T23:52:32.610Z,96.51
2022-09-24T23:54:36.437Z,96.59
2022-09-24T23:56:38.108Z,96.23
2022-09-24T23:58:41.989Z,96.37
